Time;durP1;ratioP1;P1;durP2;ratioP2;P2;SDS_P1;SDS_P2;PMS_P1;PMS_P2;Temp;Humidity;BMP_temperature;BMP_pressure;BME280_temperature;BME280_humidity;BME280_pressure;Samples;Min_cycle;Max_cycle;Signal;HPM_P1;HPM_P2
2023/05/21 00:00:43;;;;;;;5.05;4.07;;;;;;;13.88;71.85;101753.53;5037263;28;20471;-83
2023/05/21 00:03:12;;;;;;;4.68;3.60;;;;;;;13.89;72.46;101752.56;5027915;28;20034;-83
2023/05/21 00:05:41;;;;;;;6.22;3.70;;;;;;;13.83;72.47;101755.69;5037326;28;20093;-83
2023/05/21 00:08:07;;;;;;;5.75;3.80;;;;;;;13.83;73.24;101753.03;5035929;28;20025;-84
2023/05/21 00:10:32;;;;;;;5.10;4.18;;;;;;;13.74;73.63;101741.22;5036547;28;20035;-83
2023/05/21 00:12:57;;;;;;;7.18;4.38;;;;;;;13.75;73.51;101745.59;5036790;28;20435;-84
2023/05/21 00:15:22;;;;;;;9.43;4.22;;;;;;;13.69;73.80;101748.75;5037481;28;20021;-83
2023/05/21 00:17:48;;;;;;;6.57;4.07;;;;;;;13.71;73.61;101746.81;5034233;28;20045;-84
2023/05/21 00:20:13;;;;;;;6.78;4.15;;;;;;;13.65;73.93;101736.56;5040799;28;20032;-84
2023/05/21 00:22:40;;;;;;;5.72;4.20;;;;;;;13.61;73.92;101735.13;5030828;28;20037;-84
2023/05/21 00:25:06;;;;;;;6.63;4.25;;;;;;;13.59;74.55;101731.69;5040977;28;20029;-83
2023/05/21 00:27:32;;;;;;;8.48;5.18;;;;;;;13.56;74.65;101734.63;5039673;28;20395;-84
2023/05/21 00:29:57;;;;;;;7.07;6.10;;;;;;;13.57;74.53;101739.81;5039638;28;20021;-83
2023/05/21 00:32:22;;;;;;;14.60;7.65;;;;;;;13.56;74.36;101734.63;5039631;28;20104;-83
2023/05/21 00:34:47;;;;;;;13.80;8.93;;;;;;;13.50;75.36;101741.25;5039792;28;20391;-84
2023/05/21 00:37:14;;;;;;;11.40;8.57;;;;;;;13.50;74.97;101735.91;5038603;28;20033;-84
2023/05/21 00:39:39;;;;;;;12.35;8.40;;;;;;;13.46;75.78;101732.63;5026103;28;20045;-85
2023/05/21 00:42:05;;;;;;;9.77;7.55;;;;;;;13.36;75.83;101720.09;5036966;28;20072;-85
2023/05/21 00:44:33;;;;;;;6.90;6.20;;;;;;;13.35;76.18;101729.91;5038280;28;20112;-84
2023/05/21 00:47:00;;;;;;;8.35;6.15;;;;;;;13.35;75.96;101729.06;5038701;28;20033;-84
2023/05/21 00:49:26;;;;;;;8.63;5.20;;;;;;;13.33;76.44;101731.81;5037821;28;20017;-84
2023/05/21 00:51:52;;;;;;;4.88;4.38;;;;;;;13.33;76.67;101726.50;5038723;28;20394;-83
2023/05/21 00:54:17;;;;;;;6.18;4.20;;;;;;;13.33;76.16;101729.16;5039535;28;20073;-84
2023/05/21 00:56:43;;;;;;;5.57;4.25;;;;;;;13.26;76.63;101727.88;5046372;28;20036;-84
2023/05/21 00:59:08;;;;;;;4.97;4.35;;;;;;;13.23;76.45;101725.44;5040886;28;20056;-84
2023/05/21 01:01:35;;;;;;;6.50;4.47;;;;;;;13.18;76.62;101716.94;5040701;28;20085;-84
2023/05/21 01:04:01;;;;;;;5.45;4.28;;;;;;;13.23;76.95;101728.13;5035042;28;20025;-83
2023/05/21 01:06:27;;;;;;;5.30;4.10;;;;;;;13.13;77.44;101726.09;5039829;28;20440;-83
2023/05/21 01:08:55;;;;;;;6.70;4.10;;;;;;;13.07;77.36;101723.91;5026310;28;20037;-83
2023/05/21 01:11:28;;;;;;;4.88;4.18;;;;;;;13.03;77.63;101711.75;5040597;28;20491;-83
2023/05/21 01:13:54;;;;;;;7.38;4.70;;;;;;;13.07;78.30;101729.25;5028012;28;20373;-84
2023/05/21 01:16:20;;;;;;;4.65;4.03;;;;;;;13.03;77.82;101727.75;5040366;28;20088;-84
2023/05/21 01:18:45;;;;;;;4.93;4.05;;;;;;;13.05;78.48;101723.16;5039980;28;20037;-84
2023/05/21 01:21:11;;;;;;;4.75;4.22;;;;;;;13.01;78.35;101721.69;5042028;28;20026;-83
2023/05/21 01:23:36;;;;;;;6.15;4.50;;;;;;;13.00;78.63;101721.78;5040255;28;20048;-84
2023/05/21 01:26:01;;;;;;;7.60;4.32;;;;;;;12.92;79.13;101719.69;5040754;28;20060;-84
2023/05/21 01:28:28;;;;;;;8.48;5.00;;;;;;;12.86;79.00;101710.31;5041541;28;20029;-84
2023/05/21 01:30:56;;;;;;;7.00;4.50;;;;;;;12.84;79.54;101716.72;5039505;28;20036;-83
2023/05/21 01:33:47;;;;;;;7.70;5.10;;;;;;;12.85;79.50;101715.75;5031087;28;20033;-83
2023/05/21 01:36:22;;;;;;;7.35;4.53;;;;;;;12.77;79.89;101718.97;5032885;28;20056;-84
2023/05/21 01:38:56;;;;;;;6.40;4.72;;;;;;;12.75;80.28;101716.41;5044097;28;20079;-84
2023/05/21 01:41:25;;;;;;;7.50;4.95;;;;;;;12.69;80.26;101716.88;5041319;28;20036;-83
2023/05/21 01:43:53;;;;;;;6.47;4.82;;;;;;;12.62;80.77;101710.25;5042459;28;20520;-83
2023/05/21 01:46:21;;;;;;;6.55;5.03;;;;;;;12.62;80.95;101718.25;5036800;28;20510;-83
2023/05/21 01:48:49;;;;;;;5.75;4.63;;;;;;;12.63;80.56;101713.78;5043435;28;20029;-84
2023/05/21 01:51:15;;;;;;;4.88;4.45;;;;;;;12.62;81.25;101712.06;5048035;28;20095;-84
2023/05/21 01:53:40;;;;;;;6.28;5.43;;;;;;;12.58;80.90;101714.97;5040966;28;20017;-84
2023/05/21 01:56:06;;;;;;;6.20;4.53;;;;;;;12.58;81.60;101716.78;5040081;28;20025;-84
2023/05/21 01:58:31;;;;;;;6.32;4.35;;;;;;;12.60;81.73;101704.19;5038636;28;20029;-84
2023/05/21 02:00:57;;;;;;;8.00;4.65;;;;;;;12.55;82.67;101714.31;5037461;28;20081;-84
2023/05/21 02:03:26;;;;;;;7.20;4.80;;;;;;;12.42;82.88;101693.03;5041317;28;20039;-84
2023/05/21 02:05:52;;;;;;;7.72;4.28;;;;;;;12.54;82.41;101697.50;5040517;28;20021;-84
2023/05/21 02:08:18;;;;;;;7.20;4.75;;;;;;;12.56;82.72;101698.22;5038543;28;20021;-84
2023/05/21 02:10:44;;;;;;;5.63;4.40;;;;;;;12.60;82.14;101698.84;5031722;28;20025;-84
2023/05/21 02:13:09;;;;;;;6.43;4.13;;;;;;;12.62;82.39;101701.41;5029823;28;20025;-83
2023/05/21 02:15:34;;;;;;;6.50;4.75;;;;;;;12.62;82.32;101701.41;5043947;28;20033;-83
2023/05/21 02:18:03;;;;;;;7.65;4.60;;;;;;;12.63;83.64;101703.13;5044569;28;20052;-83
2023/05/21 02:20:29;;;;;;;5.72;4.55;;;;;;;12.62;83.31;101704.91;5045905;28;20029;-84
2023/05/21 02:22:55;;;;;;;7.93;4.78;;;;;;;12.65;82.66;101704.72;5046526;28;20087;-84
2023/05/21 02:25:20;;;;;;;5.50;4.50;;;;;;;12.63;82.67;101695.13;5046474;28;20033;-84
2023/05/21 02:27:45;;;;;;;7.55;4.43;;;;;;;12.65;82.75;101699.38;5045919;28;20022;-84
2023/05/21 02:30:13;;;;;;;5.70;4.57;;;;;;;12.57;83.23;101688.41;5041994;28;20436;-84
2023/05/21 02:32:41;;;;;;;7.68;5.03;;;;;;;12.67;83.34;101701.94;5034199;28;20034;-84
2023/05/21 02:35:08;;;;;;;6.03;4.43;;;;;;;12.67;83.24;101700.13;5040692;28;20053;-84
2023/05/21 02:37:34;;;;;;;5.85;4.72;;;;;;;12.66;84.10;101703.75;5043795;28;20495;-84
2023/05/21 02:40:04;;;;;;;5.60;4.40;;;;;;;12.68;84.18;101698.31;5038104;28;20053;-84
2023/05/21 02:42:30;;;;;;;9.50;4.45;;;;;;;12.69;83.83;101692.88;5040528;28;20051;-84
2023/05/21 02:44:55;;;;;;;6.00;4.55;;;;;;;12.71;84.19;101698.94;5043209;28;20051;-84
2023/05/21 02:47:22;;;;;;;6.88;4.68;;;;;;;12.71;83.39;101701.63;5041086;28;20037;-84
2023/05/21 02:49:49;;;;;;;5.43;4.68;;;;;;;12.75;83.84;101696.91;5044594;28;20032;-84
2023/05/21 02:52:14;;;;;;;4.85;4.35;;;;;;;12.71;83.37;101688.28;5043951;28;20060;-84
2023/05/21 02:54:40;;;;;;;6.75;4.82;;;;;;;12.74;83.18;101690.72;5044371;28;20025;-84
2023/05/21 02:57:06;;;;;;;5.32;4.45;;;;;;;12.76;83.51;101685.28;5040271;28;20036;-84
2023/05/21 02:59:32;;;;;;;7.07;4.85;;;;;;;12.59;84.47;101655.38;5040862;28;20021;-84
2023/05/21 03:01:57;;;;;;;6.00;4.80;;;;;;;12.72;83.89;101676.69;5032132;28;20064;-84
2023/05/21 03:04:22;;;;;;;8.02;5.15;;;;;;;12.74;84.72;101682.75;5042954;28;20060;-84
2023/05/21 03:06:53;;;;;;;5.10;4.60;;;;;;;12.75;84.97;101679.09;5044265;28;20029;-84
2023/05/21 03:09:20;;;;;;;7.43;4.63;;;;;;;12.77;85.20;101681.66;5044463;28;20025;-84
2023/05/21 03:11:45;;;;;;;6.50;5.35;;;;;;;12.71;85.69;101671.44;5045298;28;20412;-84
2023/05/21 03:14:10;;;;;;;6.35;5.00;;;;;;;12.73;84.83;101678.34;5043746;28;20024;-84
2023/05/21 03:16:36;;;;;;;5.73;4.90;;;;;;;12.73;85.69;101675.69;5050865;28;20022;-84
2023/05/21 03:19:02;;;;;;;6.53;4.57;;;;;;;12.72;84.87;101668.69;5042733;28;20288;-84
2023/05/21 03:21:28;;;;;;;5.65;5.10;;;;;;;12.71;85.33;101669.63;5041637;28;20029;-84
2023/05/21 03:23:57;;;;;;;6.55;4.90;;;;;;;12.72;85.06;101667.81;5043036;28;20080;-84
2023/05/21 03:26:23;;;;;;;8.98;5.38;;;;;;;12.70;84.96;101670.56;5042075;28;20060;-84
2023/05/21 03:28:48;;;;;;;7.60;4.97;;;;;;;12.72;85.09;101667.81;5044248;28;20026;-84
2023/05/21 03:31:13;;;;;;;6.77;5.67;;;;;;;12.68;85.32;101661.84;5043246;28;20494;-84
2023/05/21 03:33:39;;;;;;;8.43;5.25;;;;;;;12.67;85.31;101668.13;5043466;28;20357;-84
2023/05/21 03:36:04;;;;;;;9.52;5.03;;;;;;;12.67;85.31;101668.13;5043178;28;20371;-84
2023/05/21 03:38:30;;;;;;;6.28;5.30;;;;;;;12.66;85.74;101674.44;5042231;28;20040;-83
2023/05/21 03:40:55;;;;;;;7.00;4.90;;;;;;;12.64;86.09;101675.50;5049785;28;20030;-82
2023/05/21 03:43:20;;;;;;;5.83;5.33;;;;;;;12.62;85.52;101667.63;5054783;28;20026;-82
2023/05/21 03:45:45;;;;;;;6.13;5.00;;;;;;;12.59;87.18;101662.53;5054707;28;20269;-83
2023/05/21 03:48:11;;;;;;;6.05;5.45;;;;;;;12.63;86.73;101673.81;5055102;28;20034;-83
2023/05/21 03:50:36;;;;;;;6.15;5.07;;;;;;;12.64;86.08;101673.72;5057840;28;20065;-82
2023/05/21 03:53:01;;;;;;;8.00;5.18;;;;;;;12.62;87.35;101669.44;5059234;28;20018;-84
2023/05/21 03:55:28;;;;;;;6.47;5.00;;;;;;;12.64;87.09;101670.16;5078345;28;20076;-83
2023/05/21 03:57:53;;;;;;;5.43;4.93;;;;;;;12.68;87.19;101664.50;5079837;28;20063;-83
2023/05/21 04:00:18;;;;;;;7.67;4.93;;;;;;;12.68;86.56;101655.69;5069495;28;20034;-83
2023/05/21 04:02:44;;;;;;;7.03;5.00;;;;;;;12.71;87.54;101660.78;5072084;28;20296;-83
2023/05/21 04:05:09;;;;;;;5.55;4.82;;;;;;;12.71;87.62;101668.78;5079525;28;20017;-83
2023/05/21 04:07:37;;;;;;;5.80;5.20;;;;;;;12.68;87.57;101663.66;5041255;28;20040;-83
2023/05/21 04:10:02;;;;;;;7.38;5.25;;;;;;;12.71;87.65;101669.63;5030318;28;20475;-83
2023/05/21 04:12:28;;;;;;;6.78;4.93;;;;;;;12.73;87.93;101670.34;5044283;28;20036;-83
2023/05/21 04:14:53;;;;;;;6.50;4.93;;;;;;;12.75;87.35;101675.59;5038874;28;20485;-84
2023/05/21 04:17:19;;;;;;;6.80;5.10;;;;;;;12.76;87.39;101675.47;5038205;28;20606;-84
2023/05/21 04:19:45;;;;;;;8.43;5.18;;;;;;;12.74;87.77;101672.06;5028397;28;20269;-84
2023/05/21 04:22:11;;;;;;;6.40;4.53;;;;;;;12.76;87.57;101667.47;5032104;28;20026;-84
2023/05/21 04:24:36;;;;;;;6.55;5.38;;;;;;;12.72;87.88;101671.34;5018929;28;20022;-84
2023/05/21 04:27:02;;;;;;;8.32;4.95;;;;;;;12.73;87.41;101667.69;5035752;28;20075;-84
2023/05/21 04:29:28;;;;;;;7.68;5.00;;;;;;;12.78;87.29;101676.22;5038632;28;20889;-84
2023/05/21 04:31:54;;;;;;;7.18;5.57;;;;;;;12.73;88.44;101670.34;5031649;28;20456;-84
2023/05/21 04:34:19;;;;;;;9.68;6.05;;;;;;;12.76;88.35;101670.13;5036605;28;20075;-83
2023/05/21 04:36:45;;;;;;;8.27;5.97;;;;;;;12.76;88.87;101675.47;5038108;28;20075;-83
2023/05/21 04:39:13;;;;;;;10.15;6.43;;;;;;;12.77;88.98;101681.66;5039015;28;20850;-83
2023/05/21 04:41:39;;;;;;;7.47;5.82;;;;;;;12.81;88.32;101677.81;5025880;28;20097;-83
2023/05/21 04:44:08;;;;;;;14.30;5.97;;;;;;;12.80;88.80;101672.59;5033117;28;20101;-84
2023/05/21 04:46:33;;;;;;;7.47;6.00;;;;;;;12.78;88.22;101673.53;5059300;28;20064;-84
2023/05/21 04:49:01;;;;;;;11.20;6.10;;;;;;;12.83;88.81;101675.88;5045108;28;20068;-83
2023/05/21 04:51:28;;;;;;;6.65;5.72;;;;;;;12.81;88.22;101677.81;5043433;28;20534;-83
2023/05/21 04:53:53;;;;;;;7.63;5.82;;;;;;;12.85;89.36;101681.09;5037801;28;20399;-83
2023/05/21 04:56:18;;;;;;;6.65;5.95;;;;;;;12.87;88.69;101685.38;5034101;28;20025;-83
2023/05/21 04:58:44;;;;;;;11.45;5.85;;;;;;;12.89;88.63;101682.56;5034417;28;20151;-84
2023/05/21 05:01:11;;;;;;;7.05;5.80;;;;;;;12.86;88.81;101675.66;5033968;28;20029;-83
2023/05/21 05:03:39;;;;;;;6.80;5.68;;;;;;;12.91;88.43;101683.31;5034368;28;20032;-83
2023/05/21 05:06:06;;;;;;;10.00;6.38;;;;;;;12.93;88.15;101681.41;5034382;28;20028;-83
2023/05/21 05:08:31;;;;;;;7.97;6.35;;;;;;;12.96;87.94;101683.84;5034356;28;20026;-83
2023/05/21 05:10:57;;;;;;;6.50;5.85;;;;;;;12.93;88.94;101678.72;5034412;28;20053;-83
2023/05/21 05:13:22;;;;;;;8.77;6.25;;;;;;;12.94;89.40;101678.63;5034516;28;20026;-83
2023/05/21 05:15:47;;;;;;;7.45;6.20;;;;;;;13.01;89.38;101684.34;5034542;28;20084;-84
2023/05/21 05:18:12;;;;;;;7.37;6.00;;;;;;;13.03;89.25;101687.75;5040553;28;20052;-84
2023/05/21 05:20:38;;;;;;;8.23;6.70;;;;;;;13.02;89.53;101677.19;5038096;28;20367;-84
2023/05/21 05:23:03;;;;;;;8.07;6.43;;;;;;;13.05;89.94;101672.47;5034785;28;20375;-83
2023/05/21 05:25:29;;;;;;;8.13;6.72;;;;;;;13.10;89.38;101674.81;5035033;28;20029;-84
2023/05/21 05:27:54;;;;;;;9.05;6.30;;;;;;;13.14;89.50;101674.47;5035647;28;20029;-84
2023/05/21 05:30:20;;;;;;;8.18;6.60;;;;;;;13.16;89.77;101676.19;5035002;28;20026;-84
2023/05/21 05:32:45;;;;;;;7.88;6.53;;;;;;;13.20;89.54;101672.31;5039291;28;20032;-85
2023/05/21 05:35:10;;;;;;;9.65;6.60;;;;;;;13.19;89.43;101670.59;5034010;28;20025;-83
2023/05/21 05:37:36;;;;;;;9.50;7.03;;;;;;;13.26;89.65;101683.38;5025516;28;20021;-82
2023/05/21 05:40:01;;;;;;;8.20;6.65;;;;;;;13.32;89.87;101684.75;5034830;28;20030;-83
2023/05/21 05:42:27;;;;;;;10.27;6.25;;;;;;;13.37;88.97;101673.75;5034637;28;20573;-83
2023/05/21 05:44:52;;;;;;;9.32;6.32;;;;;;;13.39;89.09;101674.47;5034256;28;20053;-84
2023/05/21 05:47:17;;;;;;;11.02;6.72;;;;;;;13.43;89.16;101679.47;5034351;28;20065;-84
2023/05/21 05:49:43;;;;;;;10.30;6.80;;;;;;;13.49;89.42;101676.34;5035980;28;20040;-84
2023/05/21 05:52:08;;;;;;;8.07;6.47;;;;;;;13.53;88.98;101678.78;5038963;28;20036;-84
2023/05/21 05:54:33;;;;;;;10.57;6.90;;;;;;;13.59;88.68;101679.19;5032000;28;20037;-84
2023/05/21 05:56:58;;;;;;;8.60;6.40;;;;;;;13.60;88.78;101675.53;5038910;28;20519;-84
2023/05/21 05:59:26;;;;;;;11.45;7.28;;;;;;;13.65;87.78;101667.16;5033953;28;20092;-84
2023/05/21 06:01:51;;;;;;;8.70;7.03;;;;;;;13.72;89.15;101664.88;5051908;28;20029;-84
2023/05/21 06:04:17;;;;;;;11.15;7.10;;;;;;;13.83;88.15;101683.59;5038486;28;20033;-84
2023/05/21 06:06:42;;;;;;;10.13;6.93;;;;;;;13.91;88.11;101677.69;5039154;28;20032;-83
2023/05/21 06:09:07;;;;;;;8.57;6.80;;;;;;;14.00;87.98;101684.97;5039841;28;20108;-84
2023/05/21 06:11:32;;;;;;;8.57;6.75;;;;;;;14.04;86.81;101684.59;5039515;28;20029;-84
2023/05/21 06:14:00;;;;;;;8.60;6.18;;;;;;;14.09;86.62;101670.91;5038484;28;20044;-84
2023/05/21 06:16:27;;;;;;;7.70;6.57;;;;;;;14.20;86.91;101678.06;5027336;28;20435;-85
2023/05/21 06:18:52;;;;;;;8.95;6.97;;;;;;;14.19;86.53;101666.53;5033249;28;20045;-85
2023/05/21 06:21:18;;;;;;;9.52;7.28;;;;;;;14.36;86.03;101683.06;5022704;28;20041;-85
2023/05/21 06:23:43;;;;;;;10.93;7.85;;;;;;;14.50;86.90;101681.94;5030911;28;20455;-85
2023/05/21 06:26:08;;;;;;;7.95;6.82;;;;;;;14.61;85.67;101676.63;5045602;28;20045;-85
2023/05/21 06:28:34;;;;;;;10.35;6.88;;;;;;;14.72;85.11;101667.72;5034018;28;20038;-85
2023/05/21 06:30:59;;;;;;;11.18;7.70;;;;;;;14.87;84.61;101684.34;5027620;28;20046;-84
2023/05/21 06:33:26;;;;;;;11.05;6.97;;;;;;;14.94;84.59;101678.38;5028376;28;20520;-84
2023/05/21 06:35:51;;;;;;;8.43;7.47;;;;;;;15.05;83.92;101684.66;5029139;28;20124;-85
2023/05/21 06:38:17;;;;;;;9.00;7.32;;;;;;;15.21;83.69;101684.25;5027958;28;20078;-85
2023/05/21 06:40:43;;;;;;;10.13;7.07;;;;;;;15.37;83.29;101682.00;5025387;28;20041;-85
2023/05/21 06:43:08;;;;;;;11.13;7.22;;;;;;;15.47;82.49;101674.03;5035245;28;20272;-85
2023/05/21 06:45:34;;;;;;;12.10;7.35;;;;;;;15.57;81.65;101676.78;5025677;28;20042;-85
2023/05/21 06:47:59;;;;;;;9.48;7.20;;;;;;;15.73;81.41;101678.03;5033541;28;20040;-85
2023/05/21 06:50:24;;;;;;;7.13;6.43;;;;;;;15.90;81.24;101675.78;5033955;28;20098;-86
2023/05/21 06:52:50;;;;;;;7.95;7.15;;;;;;;16.03;79.65;101671.03;5034500;28;20025;-84
2023/05/21 06:55:15;;;;;;;9.07;7.03;;;;;;;16.22;80.16;101662.28;5027213;28;20088;-84
2023/05/21 06:57:42;;;;;;;10.60;6.93;;;;;;;16.35;79.13;101659.34;5032185;28;20022;-85
2023/05/21 07:00:08;;;;;;;10.93;6.53;;;;;;;16.54;78.93;101668.47;5029605;28;20517;-86
2023/05/21 07:02:33;;;;;;;7.60;6.25;;;;;;;16.71;77.41;101659.72;5015879;28;20112;-85
2023/05/21 07:04:59;;;;;;;7.40;6.27;;;;;;;16.83;76.12;101657.78;5030871;28;20026;-85
2023/05/21 07:07:24;;;;;;;10.07;6.83;;;;;;;16.82;75.11;101651.56;5034736;28;20304;-84
2023/05/21 07:09:49;;;;;;;7.97;6.32;;;;;;;16.99;75.55;101651.91;5035196;28;20765;-84
2023/05/21 07:12:15;;;;;;;9.60;6.57;;;;;;;17.06;74.56;101644.16;5026350;28;20044;-84
2023/05/21 07:14:40;;;;;;;6.67;6.00;;;;;;;17.29;73.90;101648.25;5029421;28;20033;-84
2023/05/21 07:17:05;;;;;;;8.87;6.70;;;;;;;17.46;73.47;101643.97;5032732;28;20288;-84
2023/05/21 07:19:31;;;;;;;10.73;7.13;;;;;;;17.48;71.29;101635.78;5031374;28;20710;-85
2023/05/21 07:21:56;;;;;;;9.38;6.45;;;;;;;17.66;71.72;101638.59;5034223;28;20673;-86
2023/05/21 07:24:22;;;;;;;7.93;6.55;;;;;;;17.91;72.01;101643.34;5032586;28;20434;-85
2023/05/21 07:26:47;;;;;;;9.02;6.40;;;;;;;18.02;70.58;101650.41;5033835;28;20668;-85
2023/05/21 07:29:12;;;;;;;9.15;6.75;;;;;;;18.18;71.04;101649.75;5035344;28;20033;-86
2023/05/21 07:31:38;;;;;;;8.95;6.60;;;;;;;18.29;70.98;101651.44;5021392;28;20399;-86
2023/05/21 07:34:03;;;;;;;9.57;6.68;;;;;;;18.40;71.53;101650.38;5035240;28;20032;-86
2023/05/21 07:36:29;;;;;;;8.00;6.88;;;;;;;18.55;70.04;101650.72;5035587;28;20063;-86
2023/05/21 07:38:55;;;;;;;8.73;6.93;;;;;;;18.58;68.34;101647.75;5024771;28;20037;-84
2023/05/21 07:41:21;;;;;;;9.48;6.78;;;;;;;18.80;68.07;101646.47;5027478;28;20030;-83
2023/05/21 07:43:46;;;;;;;8.15;6.57;;;;;;;18.82;66.81;101650.69;5038177;28;20570;-83
2023/05/21 07:46:12;;;;;;;12.45;6.90;;;;;;;19.04;66.28;101641.34;5037897;28;20060;-83
2023/05/21 07:48:37;;;;;;;8.43;6.87;;;;;;;19.27;66.03;101654.38;5035704;28;20460;-85
2023/05/21 07:51:03;;;;;;;8.45;6.90;;;;;;;19.45;66.78;101634.63;5034754;28;20418;-86
2023/05/21 07:53:31;;;;;;;9.45;6.50;;;;;;;19.62;65.47;101639.16;5020285;28;20076;-86
2023/05/21 07:55:56;;;;;;;7.88;6.80;;;;;;;19.82;66.12;101644.34;5030249;28;20037;-87
2023/05/21 07:58:22;;;;;;;9.55;6.38;;;;;;;20.04;64.23;101635.72;5032420;28;20035;-86
2023/05/21 08:00:48;;;;;;;9.75;6.68;;;;;;;20.09;63.69;101633.38;5033367;28;20025;-84
2023/05/21 08:03:17;;;;;;;8.27;7.10;;;;;;;20.29;62.09;101649.34;5034213;28;20021;-84
2023/05/21 08:05:49;;;;;;;11.18;6.55;;;;;;;20.52;63.75;101642.34;5035109;28;20030;-86
2023/05/21 08:08:16;;;;;;;12.00;6.82;;;;;;;20.63;60.91;101645.78;5033042;28;20030;-86
2023/05/21 08:10:41;;;;;;;9.38;7.13;;;;;;;20.77;61.01;101641.59;5033094;28;20476;-85
2023/05/21 08:13:07;;;;;;;11.38;7.10;;;;;;;20.79;61.01;101636.88;5033566;28;20060;-86
2023/05/21 08:15:32;;;;;;;11.13;7.15;;;;;;;20.97;61.24;101621.38;5033381;28;20052;-86
2023/05/21 08:17:57;;;;;;;10.18;7.28;;;;;;;21.20;59.17;101639.63;5033286;28;20112;-86
2023/05/21 08:20:25;;;;;;;7.53;6.70;;;;;;;21.33;59.61;101634.53;5034033;28;20363;-84
2023/05/21 08:22:50;;;;;;;8.63;6.70;;;;;;;21.51;59.33;101641.69;5033318;28;20552;-85
2023/05/21 08:25:15;;;;;;;7.60;6.68;;;;;;;21.51;57.85;101630.88;5033803;28;20021;-85
2023/05/21 08:27:41;;;;;;;7.40;6.40;;;;;;;21.66;57.55;101639.97;5033642;28;20033;-85
2023/05/21 08:30:09;;;;;;;10.48;7.10;;;;;;;21.86;57.48;101631.47;5032469;28;20068;-86
2023/05/21 08:32:34;;;;;;;9.05;6.75;;;;;;;22.15;58.18;101629.03;5033125;28;20467;-86
2023/05/21 08:35:00;;;;;;;8.60;6.80;;;;;;;22.12;55.74;101598.78;5030137;28;20025;-85
2023/05/21 08:37:25;;;;;;;9.57;6.93;;;;;;;22.38;55.56;101619.31;5018097;28;20037;-85
2023/05/21 08:39:50;;;;;;;8.40;6.80;;;;;;;22.55;54.45;101618.22;5032712;28;20449;-84
2023/05/21 08:42:44;;;;;;;9.50;7.35;;;;;;;22.88;57.44;101618.84;5023999;28;20319;-86
2023/05/21 08:45:36;;;;;;;8.80;7.32;;;;;;;23.15;56.09;101615.78;5020048;28;20030;-86
2023/05/21 08:48:04;;;;;;;15.02;7.15;;;;;;;23.21;54.16;101613.19;5070726;28;20034;-86
2023/05/21 08:50:30;;;;;;;10.75;6.97;;;;;;;23.37;52.27;101614.94;5055378;28;20026;-86
2023/05/21 08:52:57;;;;;;;13.70;7.18;;;;;;;23.55;52.70;101602.88;5056388;28;20032;-87
2023/05/21 08:55:23;;;;;;;9.55;6.85;;;;;;;23.87;52.50;101600.91;5041414;28;20037;-87
2023/05/21 08:57:49;;;;;;;9.50;6.93;;;;;;;24.13;51.95;101614.84;5030833;28;20022;-86
2023/05/21 09:00:14;;;;;;;8.77;6.88;;;;;;;24.46;51.18;101605.41;5034978;28;20064;-86
2023/05/21 09:02:42;;;;;;;10.93;6.95;;;;;;;24.61;50.81;101603.53;5019432;28;20061;-86
2023/05/21 09:05:08;;;;;;;8.43;6.88;;;;;;;24.66;49.00;101601.06;5034195;28;20488;-84
2023/05/21 09:07:45;;;;;;;8.55;6.95;;;;;;;24.78;49.16;101606.00;5027588;28;20565;-84
2023/05/21 09:10:17;;;;;;;8.93;6.78;;;;;;;24.73;49.27;101592.97;5033165;28;20025;-86
2023/05/21 09:12:43;;;;;;;13.88;6.72;;;;;;;24.90;47.88;101605.28;5051710;28;20030;-86
2023/05/21 09:15:09;;;;;;;9.45;6.50;;;;;;;25.28;48.59;101606.91;5021806;28;20084;-86
2023/05/21 09:17:37;;;;;;;14.23;7.30;;;;;;;25.06;47.11;101604.19;5032287;28;20053;-86
2023/05/21 09:20:15;;;;;;;7.97;6.70;;;;;;;25.33;49.34;101596.31;5031846;28;20487;-85
2023/05/21 09:22:50;;;;;;;8.93;6.32;;;;;;;25.58;47.82;101609.44;5029931;28;20521;-85
2023/05/21 09:25:23;;;;;;;7.20;5.90;;;;;;;25.46;48.13;101598.25;5027315;28;20039;-85
2023/05/21 09:27:49;;;;;;;7.75;6.57;;;;;;;25.66;46.09;101609.28;5030169;28;20109;-85
2023/05/21 09:30:16;;;;;;;8.75;6.82;;;;;;;25.77;45.18;101619.63;5033176;28;20116;-85
2023/05/21 09:32:42;;;;;;;8.48;6.80;;;;;;;25.81;45.87;101614.59;5041077;28;20064;-86
2023/05/21 09:35:35;;;;;;;8.90;6.43;;;;;;;25.91;45.49;101612.34;5034024;28;20029;-86
2023/05/21 09:38:01;;;;;;;7.00;6.30;;;;;;;25.83;44.87;101582.59;5030377;28;20056;-86
2023/05/21 09:40:26;;;;;;;13.02;6.82;;;;;;;25.83;44.24;101599.78;5036469;28;20038;-86
2023/05/21 09:42:54;;;;;;;7.38;6.53;;;;;;;25.87;46.20;101604.81;5034778;28;20059;-86
2023/05/21 09:45:28;;;;;;;8.05;6.90;;;;;;;25.97;46.19;101584.38;5033159;28;20119;-85
2023/05/21 09:47:55;;;;;;;9.13;7.07;;;;;;;26.24;44.72;101591.84;5036687;28;20502;-86
2023/05/21 09:50:27;;;;;;;10.23;6.50;;;;;;;26.49;45.50;101578.50;5032470;28;20021;-83
2023/05/21 09:52:54;;;;;;;11.43;6.93;;;;;;;26.45;43.97;101590.88;5034276;28;20022;-86
2023/05/21 09:55:24;;;;;;;9.90;7.15;;;;;;;26.65;44.25;101580.88;5027224;28;20038;-85
2023/05/21 09:57:52;;;;;;;7.63;6.80;;;;;;;26.73;43.10;101599.75;5029281;28;20060;-85
2023/05/21 10:00:22;;;;;;;8.80;6.30;;;;;;;26.85;43.34;101569.19;5016585;28;20672;-85
2023/05/21 10:02:49;;;;;;;9.65;6.72;;;;;;;27.08;42.96;101579.66;5033244;28;20088;-84
2023/05/21 10:05:15;;;;;;;7.20;6.40;;;;;;;27.06;42.52;101571.72;5037387;28;20033;-85
2023/05/21 10:07:52;;;;;;;8.88;7.18;;;;;;;27.42;42.50;101589.53;5036711;28;20021;-85
2023/05/21 10:10:24;;;;;;;9.35;7.28;;;;;;;27.48;40.99;101561.41;5050782;28;20048;-85
2023/05/21 10:12:57;;;;;;;8.82;6.95;;;;;;;27.71;42.36;101551.06;5033898;28;20029;-85
2023/05/21 10:15:24;;;;;;;8.23;7.40;;;;;;;27.81;40.75;101551.44;5035461;28;20083;-85
2023/05/21 10:17:52;;;;;;;8.45;6.82;;;;;;;28.02;41.74;101566.75;5037133;28;20056;-85
2023/05/21 10:20:18;;;;;;;9.65;7.00;;;;;;;27.87;40.87;101531.47;5031543;28;20036;-85
2023/05/21 10:22:43;;;;;;;10.13;7.00;;;;;;;28.05;41.29;101539.00;5037254;28;20029;-85
2023/05/21 10:25:09;;;;;;;8.07;7.15;;;;;;;27.93;42.02;101551.66;5042042;28;20026;-85
2023/05/21 10:27:37;;;;;;;8.65;7.25;;;;;;;28.00;40.33;101542.38;5035423;28;20017;-85
2023/05/21 10:30:04;;;;;;;7.60;6.90;;;;;;;28.03;40.76;101561.06;5034836;28;20124;-85
2023/05/21 10:32:32;;;;;;;8.90;7.40;;;;;;;28.05;40.26;101533.53;5036282;28;20022;-85
2023/05/21 10:35:01;;;;;;;10.68;7.88;;;;;;;28.31;40.38;101542.66;5035597;28;20017;-85
2023/05/21 10:37:27;;;;;;;9.32;7.45;;;;;;;28.36;40.66;101532.75;5036108;28;20033;-85
2023/05/21 10:39:53;;;;;;;8.30;7.50;;;;;;;28.31;39.07;101543.50;5034732;28;20034;-85
2023/05/21 10:42:31;;;;;;;13.07;7.47;;;;;;;28.78;41.24;101546.78;5027400;28;20031;-85
2023/05/21 10:45:34;;;;;;;10.13;7.53;;;;;;;28.92;40.98;101547.50;5037056;28;20049;-85
2023/05/21 10:48:16;;;;;;;10.88;7.55;;;;;;;28.78;40.52;101541.31;5036355;28;20036;-85
2023/05/21 10:51:15;;;;;;;10.45;7.57;;;;;;;28.55;40.78;101511.81;5026943;28;20458;-85
2023/05/21 10:54:07;;;;;;;10.63;8.10;;;;;;;28.70;40.12;101538.84;5017062;28;20041;-84
2023/05/21 10:56:42;;;;;;;13.70;8.98;;;;;;;28.50;40.15;101525.31;5022201;28;20025;-85
2023/05/21 10:59:33;;;;;;;8.13;7.20;;;;;;;28.81;40.92;101529.09;5036800;28;20036;-85
2023/05/21 11:02:00;;;;;;;14.00;7.80;;;;;;;28.77;39.53;101527.88;5029409;28;20032;-85
2023/05/21 11:04:26;;;;;;;9.57;7.38;;;;;;;29.02;38.82;101524.31;5035933;28;20044;-85
2023/05/21 11:06:52;;;;;;;11.73;7.53;;;;;;;29.02;39.80;101521.56;5036044;28;20040;-85
2023/05/21 11:09:17;;;;;;;9.82;8.05;;;;;;;29.02;39.17;101514.19;5035898;28;20525;-86
2023/05/21 11:11:50;;;;;;;11.97;7.60;;;;;;;29.02;39.11;101521.56;5036320;28;20430;-85
2023/05/21 11:14:25;;;;;;;9.52;7.97;;;;;;;29.18;39.18;101503.75;5019482;28;20284;-85
2023/05/21 11:16:50;;;;;;;10.82;7.68;;;;;;;29.10;39.15;101513.09;5036621;28;20120;-85
2023/05/21 11:19:16;;;;;;;9.13;8.05;;;;;;;29.16;38.19;101509.41;5035841;28;20096;-84
2023/05/21 11:21:42;;;;;;;10.85;7.72;;;;;;;29.18;38.73;101488.19;5033996;28;20038;-85
2023/05/21 11:24:09;;;;;;;12.05;8.35;;;;;;;29.15;39.01;101494.91;5034316;28;20034;-84